Time;durP1;ratioP1;P1;durP2;ratioP2;P2;SDS_P1;SDS_P2;PMS_P1;PMS_P2;Temp;Humidity;BMP_temperature;BMP_pressure;BME280_temperature;BME280_humidity;BME280_pressure;Samples;Min_cycle;Max_cycle;Signal;HPM_P1;HPM_P2
2023/03/15 00:00:10;;;;;;;;;;;;;;;7.78;76.02;98750.22;5093410;28;20030;-47
2023/03/15 00:02:47;;;;;;;14.48;6.93;;;;;;;7.86;75.22;98749.34;5113539;28;19944;-47
2023/03/15 00:05:33;;;;;;;13.90;7.10;;;;;;;7.90;74.61;98761.03;5113558;28;20028;-46
2023/03/15 00:08:00;;;;;;;16.95;8.27;;;;;;;7.88;74.40;98763.84;5095324;28;20023;-46
2023/03/15 00:10:46;;;;;;;21.75;6.82;;;;;;;7.84;74.72;98764.38;5113255;28;20032;-46
2023/03/15 00:13:14;;;;;;;12.48;6.70;;;;;;;7.72;73.80;98759.59;5113465;28;20031;-46
2023/03/15 00:15:58;;;;;;;13.82;7.05;;;;;;;7.56;73.51;98757.16;5094925;28;20062;-47
2023/03/15 00:18:25;;;;;;;15.20;7.28;;;;;;;7.37;74.26;98771.56;5095016;28;20035;-46
2023/03/15 00:20:53;;;;;;;16.23;6.63;;;;;;;7.37;75.50;98777.59;5094858;28;20523;-46
2023/03/15 00:23:19;;;;;;;12.45;7.03;;;;;;;7.36;75.24;98781.19;5094951;28;20023;-46
2023/03/15 00:25:48;;;;;;;10.82;6.65;;;;;;;7.34;75.03;98784.94;5113193;28;20428;-47
2023/03/15 00:28:17;;;;;;;13.80;6.82;;;;;;;7.36;75.59;98793.41;5094829;28;20026;-46
2023/03/15 00:31:20;;;;;;;16.08;7.75;;;;;;;7.46;75.85;98790.56;5094765;28;20034;-47
2023/03/15 00:34:04;;;;;;;14.20;7.00;;;;;;;7.49;74.73;98798.06;5094399;28;20019;-47
2023/03/15 00:36:34;;;;;;;14.80;7.18;;;;;;;7.52;74.91;98795.06;5112858;28;20055;-47
2023/03/15 00:39:00;;;;;;;17.00;6.90;;;;;;;7.59;75.50;98799.41;5094685;28;20099;-47
2023/03/15 00:41:26;;;;;;;13.30;6.88;;;;;;;7.69;74.85;98811.41;5094852;28;20038;-46
2023/03/15 00:44:06;;;;;;;14.27;7.10;;;;;;;7.72;74.37;98818.88;5094565;28;20393;-47
2023/03/15 00:46:46;;;;;;;14.85;8.05;;;;;;;7.72;74.33;98813.66;5074506;28;20023;-47
2023/03/15 00:49:12;;;;;;;14.23;7.68;;;;;;;7.74;74.34;98811.66;5092391;28;20421;-46
2023/03/15 00:51:56;;;;;;;13.50;6.93;;;;;;;7.79;73.91;98812.75;5092392;28;20020;-46
2023/03/15 00:54:26;;;;;;;16.85;7.35;;;;;;;7.87;74.27;98808.44;5092239;28;20042;-47
2023/03/15 00:57:01;;;;;;;16.35;7.38;;;;;;;8.03;73.45;98810.88;5074075;28;20032;-46
2023/03/15 00:59:33;;;;;;;19.10;6.90;;;;;;;8.23;73.52;98820.78;5074040;28;20416;-46
2023/03/15 01:02:09;;;;;;;17.10;6.63;;;;;;;8.36;73.10;98815.72;5092054;28;20263;-47
2023/03/15 01:04:36;;;;;;;18.35;6.47;;;;;;;8.49;73.97;98799.41;5073994;28;20166;-46
2023/03/15 01:07:04;;;;;;;15.73;7.20;;;;;;;8.50;75.17;98798.41;5092144;28;20032;-46
2023/03/15 01:09:36;;;;;;;16.33;7.28;;;;;;;8.29;77.42;98805.19;5073903;28;20115;-46
2023/03/15 01:12:03;;;;;;;12.55;8.18;;;;;;;7.92;79.13;98800.88;5091794;28;20035;-46
2023/03/15 01:14:49;;;;;;;16.85;8.63;;;;;;;7.42;80.24;98797.94;5073731;28;20020;-46
2023/03/15 01:17:25;;;;;;;15.77;9.65;;;;;;;7.00;81.99;98804.47;5091928;28;20437;-46
2023/03/15 01:19:57;;;;;;;;;;;;;;;6.86;83.48;98802.59;5092252;28;20516;-46
2023/03/15 01:22:23;;;;;;;14.00;7.00;;;;;;;6.78;83.65;98811.28;5091915;28;19919;-46
2023/03/15 01:24:49;;;;;;;18.20;6.28;;;;;;;6.80;84.46;98804.09;5091918;28;20031;-46
2023/03/15 01:27:24;;;;;;;15.50;6.45;;;;;;;6.87;85.17;98815.47;5073687;28;20020;-47
2023/03/15 01:30:06;;;;;;;14.77;5.55;;;;;;;6.91;85.52;98814.16;5073768;28;20024;-47
2023/03/15 01:32:41;;;;;;;15.90;4.80;;;;;;;6.98;86.00;98812.50;5073709;28;20040;-47
2023/03/15 01:35:19;;;;;;;15.63;4.75;;;;;;;7.00;86.12;98807.06;5073598;28;20020;-47
2023/03/15 01:37:44;;;;;;;11.82;4.75;;;;;;;7.04;86.34;98799.72;5091767;28;20024;-46
2023/03/15 01:40:14;;;;;;;17.88;5.78;;;;;;;7.09;85.97;98793.00;5073655;28;20028;-46
2023/03/15 01:43:03;;;;;;;15.43;5.75;;;;;;;7.13;85.32;98794.25;5056951;28;20428;-46
2023/03/15 01:46:24;;;;;;;11.05;4.50;;;;;;;7.12;84.50;98789.22;5086020;28;20067;-46
2023/03/15 01:48:58;;;;;;;9.43;3.83;;;;;;;6.97;83.69;98794.38;5075624;28;20506;-47
2023/03/15 01:51:58;;;;;;;19.33;5.65;;;;;;;6.88;83.36;98798.03;5057440;28;20051;-46
2023/03/15 01:54:48;;;;;;;13.95;6.30;;;;;;;6.73;83.27;98800.59;5075383;28;20078;-46
2023/03/15 01:57:49;;;;;;;13.82;5.32;;;;;;;6.59;84.93;98800.31;5075351;28;20028;-46
2023/03/15 02:00:36;;;;;;;16.25;6.55;;;;;;;6.50;85.26;98808.34;5037017;28;20119;-46
2023/03/15 02:03:37;;;;;;;16.20;6.47;;;;;;;6.38;85.58;98815.78;5075077;28;20036;-46
2023/03/15 02:06:09;;;;;;;15.07;5.55;;;;;;;6.29;85.88;98804.53;5040656;28;20127;-46
2023/03/15 02:08:57;;;;;;;10.65;5.78;;;;;;;6.24;86.11;98809.47;5057092;28;20043;-46
2023/03/15 02:11:27;;;;;;;22.00;5.85;;;;;;;6.13;86.51;98805.41;5060361;28;20031;-47
2023/03/15 02:14:04;;;;;;;13.10;5.55;;;;;;;6.10;86.42;98803.16;5077148;28;20397;-46
2023/03/15 02:16:34;;;;;;;17.65;6.90;;;;;;;6.04;86.46;98803.00;5076949;28;20405;-47
2023/03/15 02:19:34;;;;;;;17.85;6.22;;;;;;;5.96;86.84;98811.69;5095333;28;20035;-46
2023/03/15 02:22:59;;;;;;;15.73;7.68;;;;;;;5.86;87.55;98805.81;5095213;28;20440;-47
2023/03/15 02:26:01;;;;;;;13.88;6.18;;;;;;;5.78;88.09;98804.84;5095063;28;20024;-46
2023/03/15 02:28:31;;;;;;;17.58;5.45;;;;;;;5.84;88.33;98805.19;5076871;28;20024;-47
2023/03/15 02:31:00;;;;;;;12.18;5.97;;;;;;;5.85;88.26;98802.38;5076764;28;20025;-47
2023/03/15 02:33:50;;;;;;;12.55;5.78;;;;;;;5.84;88.38;98803.38;5095022;28;20111;-47
2023/03/15 02:36:34;;;;;;;17.73;5.85;;;;;;;5.79;87.86;98798.69;5076615;28;20107;-47
2023/03/15 02:39:32;;;;;;;15.57;6.85;;;;;;;5.64;88.24;98800.34;5076683;28;20052;-46
2023/03/15 02:42:05;;;;;;;18.10;6.47;;;;;;;5.49;88.46;98802.78;5076602;28;20024;-46
2023/03/15 02:44:42;;;;;;;14.57;5.75;;;;;;;5.48;88.69;98797.75;5076575;28;20521;-45
2023/03/15 02:47:38;;;;;;;13.95;5.75;;;;;;;5.50;88.95;98801.00;5059659;28;20055;-46
2023/03/15 02:50:11;;;;;;;14.88;4.95;;;;;;;5.44;88.98;98806.88;5076512;28;20044;-46
2023/03/15 02:52:38;;;;;;;10.55;4.85;;;;;;;5.37;89.39;98810.13;5094577;28;20024;-46
2023/03/15 02:55:27;;;;;;;12.68;4.05;;;;;;;5.31;89.39;98817.75;5090529;28;20494;-47
2023/03/15 02:58:01;;;;;;;12.27;4.47;;;;;;;5.26;89.16;98817.44;5094566;28;20498;-46
2023/03/15 03:00:30;;;;;;;13.55;5.28;;;;;;;5.23;89.56;98813.38;5094358;28;20032;-47
2023/03/15 03:03:14;;;;;;;10.52;4.32;;;;;;;5.25;89.38;98813.22;5094407;28;20063;-47
2023/03/15 03:05:40;;;;;;;14.68;5.57;;;;;;;5.25;90.01;98816.66;5076141;28;20493;-46
2023/03/15 03:08:15;;;;;;;13.45;5.07;;;;;;;5.23;90.16;98821.16;5094432;28;20020;-46
2023/03/15 03:10:50;;;;;;;9.73;4.45;;;;;;;5.22;89.59;98818.75;5094391;28;20047;-46
2023/03/15 03:13:21;;;;;;;11.13;4.05;;;;;;;5.28;90.03;98828.50;5076077;28;20056;-46
2023/03/15 03:16:10;;;;;;;10.68;4.50;;;;;;;5.30;89.59;98832.56;5094323;28;20030;-46
2023/03/15 03:19:00;;;;;;;19.65;4.35;;;;;;;5.21;89.26;98825.72;5094201;28;20103;-46
2023/03/15 03:21:42;;;;;;;10.40;3.70;;;;;;;5.05;88.61;98838.72;5075957;28;20038;-47
2023/03/15 03:24:14;;;;;;;12.57;4.75;;;;;;;4.99;89.38;98832.41;5094233;28;20028;-47
2023/03/15 03:26:47;;;;;;;14.23;4.00;;;;;;;4.95;88.92;98834.50;5093817;28;20109;-45
2023/03/15 03:29:17;;;;;;;12.45;4.18;;;;;;;4.91;89.74;98833.19;5093978;28;20016;-47
2023/03/15 03:31:55;;;;;;;14.20;4.25;;;;;;;4.93;89.45;98835.59;5075677;28;20024;-47
2023/03/15 03:34:28;;;;;;;10.18;4.60;;;;;;;4.95;89.48;98839.69;5093820;28;20098;-46
2023/03/15 03:37:00;;;;;;;10.05;5.05;;;;;;;4.91;89.73;98842.75;5075530;28;20028;-45
2023/03/15 03:39:28;;;;;;;10.10;3.35;;;;;;;4.86;89.76;98845.03;5093607;28;20020;-46
2023/03/15 03:42:01;;;;;;;12.45;4.13;;;;;;;4.83;89.60;98840.97;5075684;28;20165;-46
2023/03/15 03:44:40;;;;;;;16.10;4.65;;;;;;;4.84;89.93;98845.19;5075387;28;20024;-47
2023/03/15 03:47:12;;;;;;;11.95;3.92;;;;;;;4.84;89.85;98854.78;5074998;28;20036;-46
2023/03/15 03:49:42;;;;;;;16.15;4.43;;;;;;;4.75;90.01;98848.75;5093545;28;20028;-47
2023/03/15 03:52:12;;;;;;;20.15;4.90;;;;;;;4.71;89.97;98852.63;5093435;28;20023;-47
2023/03/15 03:54:43;;;;;;;9.05;4.15;;;;;;;4.67;90.32;98853.91;5093311;28;20032;-47
2023/03/15 03:57:15;;;;;;;12.65;3.50;;;;;;;4.67;90.88;98857.34;5093279;28;20539;-46
2023/03/15 03:59:46;;;;;;;12.10;4.22;;;;;;;4.67;90.33;98852.16;5093289;28;20027;-46
2023/03/15 04:02:18;;;;;;;11.35;3.80;;;;;;;4.64;90.15;98851.66;5074986;28;20024;-46
2023/03/15 04:04:53;;;;;;;17.48;4.22;;;;;;;4.58;89.73;98847.88;5075044;28;20465;-48
2023/03/15 04:07:23;;;;;;;11.43;4.30;;;;;;;4.59;90.17;98842.53;5092342;28;20082;-46
2023/03/15 04:10:01;;;;;;;11.55;3.88;;;;;;;4.51;90.00;98839.09;5093141;28;20025;-46
2023/03/15 04:12:33;;;;;;;12.73;4.05;;;;;;;4.40;89.54;98841.00;5092947;28;20020;-46
2023/03/15 04:15:11;;;;;;;13.43;5.78;;;;;;;4.32;89.42;98842.75;5092949;28;20028;-47
2023/03/15 04:17:38;;;;;;;11.75;4.38;;;;;;;4.26;89.90;98845.97;5074751;28;20024;-46
2023/03/15 04:20:10;;;;;;;19.80;4.28;;;;;;;4.20;90.19;98843.06;5074650;28;20040;-47
2023/03/15 04:22:39;;;;;;;9.90;3.75;;;;;;;4.31;91.15;98826.38;5093081;28;20024;-46
2023/03/15 04:25:07;;;;;;;8.70;3.63;;;;;;;4.30;90.54;98829.09;5074614;28;20028;-46
2023/03/15 04:27:39;;;;;;;9.60;4.75;;;;;;;4.36;89.63;98828.47;5093047;28;20024;-46
2023/03/15 04:30:14;;;;;;;10.20;3.88;;;;;;;4.35;89.44;98835.47;5092670;28;20489;-47
2023/03/15 04:32:57;;;;;;;7.38;3.90;;;;;;;4.25;89.21;98839.16;5074558;28;20035;-45
2023/03/15 04:35:47;;;;;;;11.70;4.00;;;;;;;4.06;89.59;98841.00;5087441;28;20036;-47
2023/03/15 04:38:25;;;;;;;9.52;5.45;;;;;;;3.95;90.29;98841.28;5057772;28;20082;-46
2023/03/15 04:41:33;;;;;;;10.60;4.07;;;;;;;3.95;89.90;98849.88;5092491;28;20034;-46
2023/03/15 04:47:10;;;;;;;11.00;3.70;;;;;;;3.87;90.29;98842.06;5029661;28;20124;-45
2023/03/15 04:50:20;;;;;;;12.45;4.07;;;;;;;3.85;90.59;98843.19;5013295;28;20139;-47
2023/03/15 04:53:02;;;;;;;16.40;4.40;;;;;;;3.83;90.59;98829.53;5029804;28;20064;-47
2023/03/15 04:55:41;;;;;;;7.85;3.75;;;;;;;3.79;90.93;98832.44;5029766;28;20036;-46
2023/03/15 04:58:13;;;;;;;9.23;3.15;;;;;;;3.78;90.88;98827.38;5029666;28;20467;-46
2023/03/15 05:00:50;;;;;;;15.85;3.72;;;;;;;3.71;90.63;98832.38;5029806;28;20036;-46
2023/03/15 05:03:38;;;;;;;19.10;4.22;;;;;;;3.63;90.44;98832.34;5029909;28;20029;-46
2023/03/15 05:06:34;;;;;;;10.60;4.15;;;;;;;3.65;91.23;98839.97;5029913;28;20491;-45
2023/03/15 05:09:22;;;;;;;14.38;3.70;;;;;;;3.68;91.05;98845.69;5003758;28;20052;-46
2023/03/15 05:12:40;;;;;;;13.15;4.13;;;;;;;3.62;90.59;98841.06;5029274;28;20119;-46
2023/03/15 05:15:21;;;;;;;7.15;3.33;;;;;;;3.46;91.10;98844.38;5013003;28;20112;-47
2023/03/15 05:17:48;;;;;;;11.93;3.20;;;;;;;3.45;91.47;98831.56;5032420;28;20028;-46
2023/03/15 05:20:23;;;;;;;6.13;3.38;;;;;;;3.50;91.39;98832.75;5049457;28;20021;-46
2023/03/15 05:22:52;;;;;;;12.93;4.10;;;;;;;3.52;91.05;98837.75;5049588;28;20091;-46
2023/03/15 05:25:42;;;;;;;12.20;4.40;;;;;;;3.46;90.30;98836.59;5049494;28;20526;-45
2023/03/15 05:28:17;;;;;;;12.90;4.63;;;;;;;3.36;91.02;98841.03;5049542;28;20064;-46
2023/03/15 05:30:45;;;;;;;10.27;4.65;;;;;;;3.42;91.04;98837.88;5049426;28;20033;-46
2023/03/15 05:33:11;;;;;;;11.57;5.10;;;;;;;3.62;91.37;98853.22;5049408;28;20049;-46
2023/03/15 05:49:04;;;;;;;13.43;3.88;;;;;;;3.71;86.65;98876.50;5374093;22;20050;-48
2023/03/15 05:51:30;;;;;;;13.10;6.07;;;;;;;3.66;87.49;98883.91;5073639;28;20107;-48
2023/03/15 05:53:55;;;;;;;9.40;4.10;;;;;;;3.74;88.06;98881.41;5073615;28;20020;-48
2023/03/15 05:56:21;;;;;;;11.02;3.55;;;;;;;3.81;88.19;98881.59;5091709;28;20081;-48
2023/03/15 05:58:47;;;;;;;12.27;4.15;;;;;;;3.84;88.10;98893.47;5091761;28;20396;-49
2023/03/15 06:01:12;;;;;;;13.75;5.72;;;;;;;3.84;88.09;98885.66;5091667;28;20507;-48
2023/03/15 06:03:38;;;;;;;17.77;4.93;;;;;;;3.84;88.26;98883.88;5073544;28;20024;-48
2023/03/15 06:06:04;;;;;;;27.35;5.45;;;;;;;3.81;88.04;98884.19;5073412;28;20043;-49
2023/03/15 06:08:29;;;;;;;12.77;4.55;;;;;;;3.92;88.28;98885.72;5073526;28;20051;-49
2023/03/15 06:10:55;;;;;;;14.48;3.88;;;;;;;4.02;88.08;98885.63;5091556;28;20027;-49
2023/03/15 06:13:21;;;;;;;15.00;4.03;;;;;;;4.13;88.19;98881.00;5073440;28;20028;-48
2023/03/15 06:15:47;;;;;;;22.15;4.75;;;;;;;4.28;88.54;98886.41;5056667;28;20020;-49
2023/03/15 06:18:13;;;;;;;12.57;4.15;;;;;;;4.41;87.79;98886.00;5073429;28;20056;-49
2023/03/15 06:20:39;;;;;;;10.10;4.18;;;;;;;4.47;87.32;98887.97;5073329;28;20027;-48
2023/03/15 06:23:06;;;;;;;13.50;4.38;;;;;;;4.60;87.39;98887.53;5073355;28;20024;-49
2023/03/15 06:25:31;;;;;;;16.23;4.13;;;;;;;5.04;87.42;98886.53;5091744;28;20029;-51
2023/03/15 06:27:57;;;;;;;12.75;4.07;;;;;;;5.48;87.41;98889.66;5091412;28;20024;-51
2023/03/15 06:30:24;;;;;;;15.32;4.63;;;;;;;6.28;86.26;98888.94;5092499;28;20024;-50
2023/03/15 06:32:50;;;;;;;12.75;4.00;;;;;;;7.71;84.60;98896.44;5077324;28;20073;-51
2023/03/15 06:35:16;;;;;;;11.90;3.70;;;;;;;9.18;81.99;98896.59;5095084;28;20017;-51
2023/03/15 06:37:42;;;;;;;10.60;4.20;;;;;;;10.57;77.08;98898.66;5095074;28;20043;-51
2023/03/15 06:40:10;;;;;;;12.63;3.63;;;;;;;11.69;73.86;98893.03;5076935;28;20016;-51
2023/03/15 06:42:37;;;;;;;19.45;3.95;;;;;;;12.51;68.31;98901.47;5095014;28;20093;-51
2023/03/15 06:45:03;;;;;;;20.83;4.28;;;;;;;13.29;65.88;98895.22;5094893;28;20176;-51
2023/03/15 06:47:29;;;;;;;8.07;3.55;;;;;;;13.60;63.60;98891.78;5094844;28;20548;-51
2023/03/15 06:49:55;;;;;;;10.07;4.18;;;;;;;13.57;62.15;98900.94;5073022;28;20047;-51
2023/03/15 06:52:20;;;;;;;7.00;3.72;;;;;;;13.06;59.74;98908.94;5074507;28;20100;-51
2023/03/15 06:54:46;;;;;;;16.88;4.40;;;;;;;12.46;58.42;98901.28;5073030;28;20029;-51
2023/03/15 06:57:12;;;;;;;12.05;5.38;;;;;;;11.92;57.52;98903.19;5074399;28;20511;-51
2023/03/15 06:59:37;;;;;;;24.75;5.50;;;;;;;11.74;59.90;98909.84;5056401;28;20477;-51
2023/03/15 07:02:03;;;;;;;11.32;4.40;;;;;;;12.24;60.92;98912.06;5072958;28;20030;-51
2023/03/15 07:04:30;;;;;;;15.38;4.93;;;;;;;12.78;60.04;98916.16;5074284;28;20078;-51
2023/03/15 07:06:55;;;;;;;25.48;7.90;;;;;;;13.17;57.23;98924.09;5074229;28;20123;-52
2023/03/15 07:09:21;;;;;;;28.02;15.98;;;;;;;13.15;54.92;98923.47;5074245;28;20523;-51
2023/03/15 07:11:47;;;;;;;16.25;8.88;;;;;;;13.17;55.94;98922.25;5072716;28;20021;-51
2023/03/15 07:14:12;;;;;;;21.45;11.85;;;;;;;13.54;54.34;98924.28;5072649;28;20497;-49
2023/03/15 07:16:38;;;;;;;15.38;5.70;;;;;;;14.10;52.91;98933.19;5055984;28;20017;-49
2023/03/15 07:19:04;;;;;;;13.27;5.78;;;;;;;14.73;51.74;98929.53;5072634;28;20028;-49
2023/03/15 07:21:29;;;;;;;11.27;4.72;;;;;;;15.45;50.49;98926.94;5072549;28;20514;-49
2023/03/15 07:23:55;;;;;;;13.65;5.57;;;;;;;16.01;48.74;98924.88;5073958;28;20031;-49
2023/03/15 07:26:21;;;;;;;14.13;4.45;;;;;;;16.55;47.50;98920.25;5072386;28;20493;-49
2023/03/15 07:28:46;;;;;;;12.10;4.63;;;;;;;17.13;45.27;98921.16;5073809;28;20024;-49
2023/03/15 07:31:13;;;;;;;11.38;4.22;;;;;;;17.66;43.93;98920.97;5074066;28;20218;-49
2023/03/15 07:33:39;;;;;;;7.80;3.75;;;;;;;18.35;42.42;98912.72;5073753;28;20485;-49
2023/03/15 07:36:06;;;;;;;10.75;4.05;;;;;;;18.99;41.33;98911.41;5073398;28;20095;-49
2023/03/15 07:38:33;;;;;;;12.88;3.83;;;;;;;19.58;39.38;98911.47;5072234;28;20032;-47
2023/03/15 07:41:04;;;;;;;24.63;5.68;;;;;;;19.44;38.57;98908.41;5071914;28;20019;-46
2023/03/15 07:43:30;;;;;;;22.23;7.18;;;;;;;19.70;37.44;98905.97;5072217;28;20024;-47
2023/03/15 07:45:56;;;;;;;15.48;5.22;;;;;;;19.75;36.70;98906.81;5073474;28;20564;-46
2023/03/15 07:48:22;;;;;;;14.32;4.40;;;;;;;19.49;37.22;98916.44;5071849;28;20115;-48
2023/03/15 07:50:48;;;;;;;14.15;4.05;;;;;;;19.49;36.33;98920.94;5071900;28;20060;-46
2023/03/15 07:53:13;;;;;;;17.00;4.10;;;;;;;19.89;35.47;98923.16;5072090;28;20035;-46
2023/03/15 07:55:39;;;;;;;12.55;3.72;;;;;;;20.42;34.78;98920.56;5071911;28;20112;-46
2023/03/15 07:58:05;;;;;;;22.08;4.90;;;;;;;20.69;33.54;98920.47;5073285;28;20024;-46
2023/03/15 08:00:31;;;;;;;15.65;3.78;;;;;;;20.67;32.76;98925.25;5073188;28;20024;-46
2023/03/15 08:02:57;;;;;;;19.08;5.10;;;;;;;20.64;33.53;98920.41;5071578;28;20035;-47
2023/03/15 08:05:23;;;;;;;11.80;3.58;;;;;;;20.54;32.92;98926.50;5071643;28;20020;-46
2023/03/15 08:07:49;;;;;;;10.95;3.25;;;;;;;20.78;32.22;98926.09;5071629;28;20020;-46
2023/03/15 08:10:17;;;;;;;13.73;5.65;;;;;;;19.86;33.46;98920.22;5073023;28;20027;-46
2023/03/15 08:12:43;;;;;;;16.23;4.93;;;;;;;18.91;35.38;98928.59;5072878;28;20078;-47
2023/03/15 08:15:13;;;;;;;15.05;3.78;;;;;;;19.20;35.82;98925.75;5071352;28;20025;-47
2023/03/15 08:17:39;;;;;;;10.02;3.45;;;;;;;19.65;34.94;98916.56;5071489;28;20032;-47
2023/03/15 08:20:10;;;;;;;9.90;3.80;;;;;;;20.34;34.89;98916.53;5072693;28;20492;-47
2023/03/15 08:22:37;;;;;;;13.93;4.60;;;;;;;21.30;33.49;98917.16;5072699;28;20032;-46
2023/03/15 08:25:04;;;;;;;28.58;3.97;;;;;;;21.90;32.45;98916.66;5072636;28;20035;-47
2023/03/15 08:27:30;;;;;;;18.38;3.67;;;;;;;22.29;31.93;98919.53;5071455;28;20036;-47
2023/03/15 08:29:56;;;;;;;16.48;3.70;;;;;;;22.67;31.02;98917.28;5071186;28;20154;-47
2023/03/15 08:32:21;;;;;;;15.05;3.60;;;;;;;23.35;30.17;98918.56;5072741;28;20107;-47
2023/03/15 08:34:47;;;;;;;23.30;3.83;;;;;;;22.96;30.43;98907.78;5072420;28;20024;-48
2023/03/15 08:37:13;;;;;;;24.20;3.58;;;;;;;23.25;29.74;98926.66;5072437;28;20032;-47
2023/03/15 08:39:38;;;;;;;17.75;3.53;;;;;;;23.52;29.52;98921.66;5072390;28;20027;-47
2023/03/15 08:42:05;;;;;;;15.93;3.58;;;;;;;23.75;29.08;98921.22;5071150;28;20020;-47
2023/03/15 08:44:31;;;;;;;13.75;3.00;;;;;;;24.36;27.74;98928.69;5070957;28;20163;-47
2023/03/15 08:46:57;;;;;;;12.73;3.42;;;;;;;24.52;27.40;98921.28;5071148;28;20028;-47
2023/03/15 08:49:23;;;;;;;17.02;3.40;;;;;;;23.76;27.52;98922.78;5072035;28;20060;-47
2023/03/15 08:51:48;;;;;;;8.07;2.70;;;;;;;23.73;27.89;98924.97;5070707;28;20099;-47
2023/03/15 08:54:14;;;;;;;11.60;2.38;;;;;;;24.27;27.16;98914.31;5070221;28;20032;-48
2023/03/15 08:56:40;;;;;;;8.57;2.17;;;;;;;24.78;26.34;98908.34;5070641;28;20489;-47
2023/03/15 08:59:07;;;;;;;4.93;1.70;;;;;;;24.49;26.62;98908.44;5054169;28;20503;-47
2023/03/15 09:01:33;;;;;;;10.15;2.30;;;;;;;24.24;26.89;98917.53;5071869;28;20025;-48
2023/03/15 09:04:00;;;;;;;5.70;2.03;;;;;;;24.57;26.35;98917.72;5072076;28;20024;-47
2023/03/15 09:06:27;;;;;;;6.15;2.08;;;;;;;24.85;25.62;98921.41;5070557;28;20448;-47
2023/03/15 09:08:53;;;;;;;8.75;2.25;;;;;;;25.27;24.81;98919.78;5072037;28;20397;-47
2023/03/15 09:11:20;;;;;;;5.32;1.60;;;;;;;25.46;22.92;98925.94;5072030;28;20099;-47
2023/03/15 09:13:45;;;;;;;7.85;2.10;;;;;;;25.08;22.91;98925.94;5071922;28;20032;-47
2023/03/15 09:16:11;;;;;;;9.90;2.17;;;;;;;24.89;23.24;98925.09;5071821;28;20016;-47
2023/03/15 09:18:39;;;;;;;15.48;2.05;;;;;;;24.42;23.97;98932.09;5071852;28;20052;-47
2023/03/15 09:21:05;;;;;;;15.00;2.72;;;;;;;24.92;23.80;98928.03;5070476;28;20027;-47
2023/03/15 09:23:31;;;;;;;17.63;2.92;;;;;;;25.25;23.01;98930.84;5071752;28;20105;-47
2023/03/15 09:25:57;;;;;;;12.63;2.33;;;;;;;25.20;22.55;98928.19;5071754;28;20543;-47
2023/03/15 09:28:24;;;;;;;9.13;2.55;;;;;;;25.34;23.09;98927.50;5071661;28;20074;-47
2023/03/15 09:30:51;;;;;;;10.18;2.40;;;;;;;24.97;23.18;98932.53;5070408;28;20025;-47
2023/03/15 09:33:16;;;;;;;9.45;2.53;;;;;;;24.75;23.20;98930.41;5070495;28;20032;-47
2023/03/15 09:35:42;;;;;;;6.82;2.03;;;;;;;24.94;23.10;98929.63;5071607;28;20511;-47
2023/03/15 09:38:08;;;;;;;12.52;2.53;;;;;;;25.03;23.02;98930.56;5071726;28;20063;-47
2023/03/15 09:40:40;;;;;;;7.53;1.90;;;;;;;25.25;22.83;98933.53;5071644;28;20077;-47
2023/03/15 09:43:05;;;;;;;9.55;2.08;;;;;;;25.25;22.39;98936.22;5070257;28;20024;-47
2023/03/15 09:45:56;;;;;;;12.27;2.45;;;;;;;25.33;23.09;98932.03;5071556;28;20021;-47
2023/03/15 09:48:49;;;;;;;11.05;2.35;;;;;;;25.22;22.89;98934.09;5070010;28;20528;-48
2023/03/15 09:51:38;;;;;;;13.50;2.65;;;;;;;25.61;22.50;98941.03;5053521;28;20032;-48
2023/03/15 09:54:09;;;;;;;10.13;1.83;;;;;;;25.74;21.86;98930.63;5071524;28;20039;-47
2023/03/15 09:57:16;;;;;;;9.32;2.05;;;;;;;25.52;22.10;98940.09;5071445;28;20396;-47
2023/03/15 09:59:47;;;;;;;10.25;1.98;;;;;;;25.05;22.12;98939.94;5009466;28;20041;-47
2023/03/15 10:02:16;;;;;;;7.90;1.65;;;;;;;24.48;23.04;98939.81;5009573;28;20281;-47
2023/03/15 10:04:44;;;;;;;8.55;1.73;;;;;;;24.28;23.54;98937.34;5011199;28;20030;-47
2023/03/15 10:07:15;;;;;;;5.93;1.88;;;;;;;24.36;23.42;98936.72;5013506;28;20026;-47
2023/03/15 10:09:42;;;;;;;4.15;1.50;;;;;;;24.24;22.27;98941.69;5013358;28;20049;-47
2023/03/15 10:12:15;;;;;;;5.68;1.10;;;;;;;24.33;22.42;98946.16;4996882;28;20536;-47
2023/03/15 10:15:14;;;;;;;4.25;1.50;;;;;;;24.84;22.99;98938.63;5013325;28;20030;-47
2023/03/15 10:17:52;;;;;;;9.00;1.80;;;;;;;25.63;22.46;98928.09;5013206;28;20037;-47
2023/03/15 10:20:23;;;;;;;12.00;2.38;;;;;;;25.97;22.49;98927.00;5013117;28;20117;-47
2023/03/15 10:23:01;;;;;;;8.45;2.65;;;;;;;26.55;21.57;98933.75;4996703;28;20041;-47
2023/03/15 10:25:29;;;;;;;6.72;2.00;;;;;;;27.48;20.47;98919.09;5013087;28;20026;-47
2023/03/15 10:28:06;;;;;;;8.93;1.73;;;;;;;28.16;19.84;98919.06;5013024;28;20030;-47
2023/03/15 10:30:35;;;;;;;9.85;2.50;;;;;;;27.07;19.91;98928.13;5013016;28;20584;-47
2023/03/15 10:33:27;;;;;;;10.75;2.42;;;;;;;24.62;21.46;98926.53;4996629;28;20395;-47
2023/03/15 10:35:53;;;;;;;11.23;4.35;;;;;;;24.62;21.44;98917.69;5052746;28;20062;-47
2023/03/15 10:38:20;;;;;;;10.93;2.33;;;;;;;24.98;21.17;98914.53;5074794;28;20021;-47
2023/03/15 10:40:52;;;;;;;6.00;1.60;;;;;;;25.10;21.06;98914.91;5073264;28;20020;-47
2023/03/15 10:43:31;;;;;;;10.63;1.90;;;;;;;24.60;21.31;98917.16;5074775;28;20056;-47
2023/03/15 10:46:06;;;;;;;8.18;1.45;;;;;;;24.70;21.79;98900.94;5074578;28;20520;-47
2023/03/15 10:48:36;;;;;;;;;;;;;;;25.39;22.24;98895.16;5074740;28;20497;-48
2023/03/15 10:51:19;;;;;;;6.43;1.67;;;;;;;25.75;21.38;98899.94;5074468;28;20006;-47
2023/03/15 10:54:11;;;;;;;14.20;1.23;;;;;;;25.66;20.53;98897.94;5073196;28;20033;-47
2023/03/15 10:56:45;;;;;;;3.88;1.00;;;;;;;25.62;20.18;98899.63;5074345;28;20031;-47
2023/03/15 10:59:25;;;;;;;5.50;1.25;;;;;;;26.20;19.43;98886.78;5073035;28;20028;-47
2023/03/15 11:02:06;;;;;;;10.20;1.33;;;;;;;25.55;19.65;98893.81;5074361;28;20039;-47
2023/03/15 11:04:31;;;;;;;7.38;1.00;;;;;;;25.77;18.73;98887.81;5072898;28;20067;-46
2023/03/15 11:06:57;;;;;;;10.63;1.52;;;;;;;26.00;19.03;98894.16;5074237;28;20413;-47
2023/03/15 11:09:25;;;;;;;6.78;1.63;;;;;;;26.55;18.61;98890.66;5072804;28;20035;-47
2023/03/15 11:12:02;;;;;;;10.93;1.33;;;;;;;26.77;18.63;98889.19;5072903;28;20440;-47
2023/03/15 11:14:44;;;;;;;12.23;1.38;;;;;;;26.62;19.02;98883.03;5074195;28;20025;-47
2023/03/15 11:17:22;;;;;;;4.38;0.95;;;;;;;26.44;18.86;98882.00;5072304;28;20035;-47
2023/03/15 11:19:56;;;;;;;10.45;1.85;;;;;;;26.59;18.64;98891.69;5074066;28;20032;-47
2023/03/15 11:22:22;;;;;;;9.77;1.30;;;;;;;26.58;18.48;98889.28;5072689;28;20478;-47
2023/03/15 11:24:48;;;;;;;9.68;1.52;;;;;;;26.66;18.29;98888.59;5072551;28;20120;-47
2023/03/15 11:27:17;;;;;;;12.05;1.50;;;;;;;26.86;18.20;98892.72;5073844;28;20016;-47
2023/03/15 11:29:58;;;;;;;9.70;1.10;;;;;;;27.08;17.91;98884.72;5072486;28;20109;-47
2023/03/15 11:32:30;;;;;;;13.35;1.38;;;;;;;27.20;18.45;98886.06;5073839;28;20029;-47
2023/03/15 11:35:04;;;;;;;4.45;0.70;;;;;;;26.92;17.78;98885.34;5073748;28;20031;-47
2023/03/15 11:37:41;;;;;;;8.25;1.35;;;;;;;26.38;18.29;98879.72;5073732;28;20039;-47
2023/03/15 11:40:17;;;;;;;11.50;1.30;;;;;;;26.17;18.33;98882.00;5073732;28;20028;-48
2023/03/15 11:42:49;;;;;;;5.15;1.00;;;;;;;26.29;18.40;98880.41;5072237;28;20578;-47
2023/03/15 11:45:44;;;;;;;4.97;1.20;;;;;;;26.27;18.29;98879.91;5073619;28;20028;-47
2023/03/15 11:48:19;;;;;;;11.60;1.42;;;;;;;26.19;18.34;98866.38;5073537;28;20150;-47
2023/03/15 11:50:45;;;;;;;9.68;1.75;;;;;;;26.49;17.98;98871.13;5071757;28;20047;-47
2023/03/15 11:53:15;;;;;;;6.50;1.15;;;;;;;26.11;18.07;98873.25;5073360;28;20024;-47
2023/03/15 11:55:46;;;;;;;6.72;1.33;;;;;;;25.84;17.85;98871.31;5073195;28;20056;-47
2023/03/15 11:58:33;;;;;;;10.15;1.17;;;;;;;25.60;18.50;98864.19;5073297;28;20025;-47
2023/03/15 12:01:03;;;;;;;6.20;1.02;;;;;;;25.91;18.32;98853.69;5071744;28;20028;-47
2023/03/15 12:03:43;;;;;;;9.95;1.33;;;;;;;26.07;18.06;98848.03;5071754;28;20025;-47
2023/03/15 12:06:34;;;;;;;5.63;1.15;;;;;;;25.90;18.19;98851.31;5071548;28;20035;-47
2023/03/15 12:09:00;;;;;;;7.80;0.93;;;;;;;25.69;17.97;98840.09;5065691;28;20047;-47
2023/03/15 12:11:26;;;;;;;5.65;1.23;;;;;;;25.08;18.47;98849.94;5072894;28;20028;-47
2023/03/15 12:14:00;;;;;;;11.77;1.00;;;;;;;24.77;18.85;98847.72;5072963;28;20143;-47
2023/03/15 12:16:36;;;;;;;3.70;0.75;;;;;;;24.66;19.16;98847.03;5072780;28;20048;-47